createdAt,value
2018-11-10T00:02:30.195Z,22.10
2018-11-10T00:05:00.321Z,21.03
2018-11-10T00:07:30.858Z,25.70
2018-11-10T00:10:00.891Z,27.73
2018-11-10T00:12:31.510Z,33.70
2018-11-10T00:15:01.238Z,43.83
2018-11-10T00:17:31.421Z,37.43
2018-11-10T00:20:02.192Z,37.83
2018-11-10T00:22:32.105Z,40.37
2018-11-10T00:25:01.941Z,38.47
2018-11-10T00:27:32.121Z,43.33
2018-11-10T00:30:01.414Z,40.67
2018-11-10T00:32:31.647Z,42.47
2018-11-10T00:35:02.406Z,41.33
2018-11-10T00:37:32.031Z,39.83
2018-11-10T00:40:01.807Z,38.93
2018-11-10T00:42:32.024Z,37.57
2018-11-10T00:45:01.529Z,36.63
2018-11-10T00:47:32.242Z,36.23
2018-11-10T00:50:02.403Z,36.00
2018-11-10T00:52:32.354Z,34.83
2018-11-10T00:55:02.401Z,34.20
2018-11-10T00:57:33.108Z,33.87
2018-11-10T01:00:03.321Z,34.57
2018-11-10T01:02:33.425Z,32.60
2018-11-10T01:05:03.886Z,33.80
2018-11-10T01:07:34.884Z,31.83
2018-11-10T01:10:04.508Z,32.90
2018-11-10T01:12:34.459Z,33.67
2018-11-10T01:15:04.766Z,32.70
2018-11-10T01:17:35.078Z,30.77
2018-11-10T01:20:05.694Z,31.27
2018-11-10T01:22:35.883Z,31.87
2018-11-10T01:25:07.323Z,31.97
2018-11-10T01:27:37.133Z,30.53
2018-11-10T01:30:09.441Z,29.17
2018-11-10T01:32:39.888Z,28.73
2018-11-10T01:35:10.389Z,29.40
2018-11-10T01:37:41.115Z,29.60
2018-11-10T01:40:12.958Z,28.73
2018-11-10T01:42:43.960Z,28.33
2018-11-10T01:45:15.747Z,29.20
2018-11-10T01:47:46.180Z,29.57
2018-11-10T01:50:16.460Z,26.83
2018-11-10T01:52:46.921Z,31.33
2018-11-10T01:55:17.562Z,29.47
2018-11-10T01:57:48.263Z,33.87
2018-11-10T02:00:19.569Z,33.77
2018-11-10T02:02:50.779Z,36.60
2018-11-10T02:05:20.904Z,32.90
2018-11-10T02:07:50.931Z,34.67
2018-11-10T02:10:20.868Z,32.83
2018-11-10T02:12:51.352Z,32.90
2018-11-10T02:15:23.599Z,34.00
2018-11-10T02:17:54.738Z,34.87
2018-11-10T02:20:25.012Z,35.63
2018-11-10T02:22:56.168Z,42.10
2018-11-10T02:25:26.343Z,45.93
2018-11-10T02:27:56.106Z,46.27
2018-11-10T02:30:26.459Z,45.57
2018-11-10T02:32:56.484Z,41.60
2018-11-10T02:35:26.844Z,40.07
2018-11-10T02:37:57.718Z,42.80
2018-11-10T02:40:27.800Z,38.97
2018-11-10T02:42:57.625Z,40.93
2018-11-10T02:45:27.602Z,37.40
2018-11-10T02:47:57.977Z,35.90
2018-11-10T02:50:29.122Z,34.90
2018-11-10T02:52:59.102Z,29.40
2018-11-10T02:55:29.711Z,22.40
2018-11-10T02:58:00.481Z,23.87
2018-11-10T03:00:30.269Z,30.20
2018-11-10T03:03:00.283Z,33.33
2018-11-10T03:05:30.503Z,31.47
2018-11-10T03:08:00.140Z,31.57
2018-11-10T03:10:29.892Z,30.50
2018-11-10T03:13:00.074Z,30.50
2018-11-10T03:15:30.328Z,28.90
2018-11-10T03:18:00.883Z,27.90
2018-11-10T03:20:30.850Z,27.33
2018-11-10T03:23:00.560Z,27.00
2018-11-10T03:25:31.209Z,25.37
2018-11-10T03:28:00.906Z,26.77
2018-11-10T03:30:30.789Z,26.63
2018-11-10T03:33:00.756Z,22.60
2018-11-10T03:35:32.123Z,20.77
2018-11-10T03:38:02.060Z,19.93
2018-11-10T03:40:32.696Z,19.43
2018-11-10T03:43:02.397Z,19.77
2018-11-10T03:45:32.272Z,21.67
2018-11-10T03:48:02.743Z,21.60
2018-11-10T03:50:33.793Z,19.40
2018-11-10T03:53:04.846Z,19.33
2018-11-10T03:55:35.019Z,20.33
2018-11-10T03:58:06.578Z,23.13
2018-11-10T04:00:36.491Z,22.60
2018-11-10T04:03:07.416Z,21.47
2018-11-10T04:05:37.644Z,22.07
2018-11-10T04:08:08.474Z,24.77
2018-11-10T04:10:39.132Z,28.67
2018-11-10T04:13:09.359Z,22.53
2018-11-10T04:15:39.430Z,25.47
2018-11-10T04:18:09.736Z,24.07
2018-11-10T04:20:40.201Z,25.67
2018-11-10T04:23:10.240Z,24.17
2018-11-10T04:25:40.177Z,22.40
2018-11-10T04:28:09.931Z,22.50
2018-11-10T04:30:39.805Z,20.20
2018-11-10T04:33:10.340Z,21.03
2018-11-10T04:35:40.549Z,20.70
2018-11-10T04:38:11.194Z,19.83
2018-11-10T04:40:41.331Z,19.13
2018-11-10T04:43:12.202Z,19.33
2018-11-10T04:45:43.476Z,20.53
2018-11-10T04:48:14.130Z,19.93
2018-11-10T04:50:44.148Z,18.33
2018-11-10T04:53:14.755Z,18.40
2018-11-10T04:55:45.001Z,18.80
2018-11-10T04:58:15.378Z,33.67
2018-11-10T05:00:44.931Z,18.63
2018-11-10T05:03:15.291Z,20.40
2018-11-10T05:05:46.847Z,18.77
2018-11-10T05:08:17.411Z,20.47
2018-11-10T05:10:47.758Z,19.77
2018-11-10T05:13:18.062Z,31.37
2018-11-10T05:15:48.366Z,38.50
2018-11-10T05:18:18.688Z,37.67
2018-11-10T05:20:48.838Z,39.27
2018-11-10T05:23:19.917Z,35.97
2018-11-10T05:25:50.818Z,33.97
2018-11-10T05:28:21.709Z,33.27
2018-11-10T05:30:52.318Z,31.50
2018-11-10T05:33:22.569Z,34.30
2018-11-10T05:35:52.734Z,33.87
2018-11-10T05:38:28.609Z,32.20
2018-11-10T05:40:58.766Z,28.73
2018-11-10T05:43:30.370Z,32.27
2018-11-10T05:46:00.310Z,24.63
2018-11-10T05:48:31.441Z,21.60
2018-11-10T05:51:01.412Z,26.47
2018-11-10T05:53:31.342Z,33.50
2018-11-10T05:56:02.037Z,28.93
2018-11-10T05:58:32.017Z,27.67
2018-11-10T06:01:01.968Z,24.30
2018-11-10T06:03:33.476Z,22.17
2018-11-10T06:06:04.190Z,21.17
2018-11-10T06:08:34.568Z,21.00
2018-11-10T06:11:04.766Z,20.97
2018-11-10T06:13:35.770Z,20.07
2018-11-10T06:16:05.542Z,20.70
2018-11-10T06:18:36.609Z,20.87
2018-11-10T06:21:08.106Z,21.83
2018-11-10T06:23:38.708Z,21.40
2018-11-10T06:26:09.805Z,20.80
2018-11-10T06:28:40.766Z,21.03
2018-11-10T06:31:10.569Z,20.47
2018-11-10T06:33:41.247Z,21.57
2018-11-10T06:36:12.911Z,22.53
2018-11-10T06:38:42.792Z,21.90
2018-11-10T06:41:14.119Z,21.70
2018-11-10T06:43:45.183Z,20.67
2018-11-10T06:46:17.018Z,19.10
2018-11-10T06:48:46.850Z,20.30
2018-11-10T06:51:18.070Z,18.20
2018-11-10T06:53:48.082Z,18.63
2018-11-10T06:56:18.526Z,19.03
2018-11-10T06:58:50.016Z,19.23
2018-11-10T07:01:20.025Z,19.20
2018-11-10T07:03:50.649Z,18.90
2018-11-10T07:06:20.621Z,18.77
2018-11-10T07:08:51.112Z,20.07
2018-11-10T07:11:21.945Z,20.43
2018-11-10T07:13:54.043Z,20.73
2018-11-10T07:16:24.524Z,20.53
2018-11-10T07:18:54.315Z,20.30
2018-11-10T07:21:27.331Z,20.20
2018-11-10T07:23:58.836Z,21.70
2018-11-10T07:26:28.535Z,21.00
2018-11-10T07:29:03.591Z,21.30
2018-11-10T07:31:34.420Z,21.00
2018-11-10T07:34:03.800Z,20.17
2018-11-10T07:36:36.463Z,20.20
2018-11-10T07:39:13.818Z,20.10
2018-11-10T07:42:04.230Z,20.57
2018-11-10T07:44:41.427Z,24.17
2018-11-10T07:47:25.756Z,24.97
2018-11-10T07:50:07.766Z,25.83
2018-11-10T07:52:40.409Z,28.60
2018-11-10T07:55:17.056Z,26.53
2018-11-10T07:57:55.902Z,23.67
2018-11-10T08:00:31.862Z,20.77
2018-11-10T08:03:05.714Z,21.43
2018-11-10T08:05:39.331Z,21.43
2018-11-10T08:08:09.885Z,22.00
2018-11-10T08:10:47.332Z,22.23
2018-11-10T08:13:20.463Z,21.20
2018-11-10T08:15:54.750Z,23.10
2018-11-10T08:18:30.693Z,22.87
2018-11-10T08:21:07.425Z,22.00
2018-11-10T08:23:38.890Z,22.07
2018-11-10T08:26:09.067Z,21.53
2018-11-10T08:28:41.988Z,21.63
2018-11-10T08:31:15.199Z,22.83
2018-11-10T08:33:48.045Z,21.10
2018-11-10T08:36:22.407Z,20.67
2018-11-10T08:38:57.252Z,21.30
2018-11-10T08:41:29.624Z,20.80
2018-11-10T08:44:03.803Z,24.10
2018-11-10T08:46:35.685Z,19.30
2018-11-10T08:49:07.094Z,19.83
2018-11-10T08:51:39.937Z,18.60
2018-11-10T08:54:13.453Z,18.13
2018-11-10T08:56:46.871Z,17.43
2018-11-10T08:59:21.615Z,17.67
2018-11-10T09:01:54.960Z,17.43
2018-11-10T09:04:24.227Z,18.03
2018-11-10T09:06:56.009Z,15.80
2018-11-10T09:09:25.344Z,16.40
2018-11-10T09:11:56.763Z,16.03
2018-11-10T09:14:26.527Z,12.17
2018-11-10T09:16:59.482Z,16.90
2018-11-10T09:19:30.479Z,15.97
2018-11-10T09:21:59.995Z,16.87
2018-11-10T09:24:31.202Z,15.50
2018-11-10T09:27:00.330Z,17.90
2018-11-10T09:29:34.759Z,17.23
2018-11-10T09:32:08.783Z,17.10
2018-11-10T09:34:37.846Z,17.57
2018-11-10T09:37:09.320Z,15.93
2018-11-10T09:39:40.326Z,15.30
2018-11-10T09:42:11.230Z,16.23
2018-11-10T09:44:43.153Z,17.30
2018-11-10T09:47:12.400Z,17.20
2018-11-10T09:49:43.576Z,16.20
2018-11-10T09:52:18.587Z,18.30
2018-11-10T09:54:52.542Z,16.13
2018-11-10T09:57:22.838Z,16.57
2018-11-10T09:59:54.603Z,16.83
2018-11-10T10:02:29.584Z,15.80
2018-11-10T10:05:03.078Z,15.03
2018-11-10T10:07:38.153Z,14.97
2018-11-10T10:10:13.846Z,14.57
2018-11-10T10:12:46.200Z,14.90
2018-11-10T10:15:16.515Z,14.57
2018-11-10T10:17:48.862Z,16.00
2018-11-10T10:20:25.110Z,14.60
2018-11-10T10:22:57.543Z,15.73
2018-11-10T10:25:28.231Z,14.13
2018-11-10T10:27:58.124Z,13.50
2018-11-10T10:30:28.388Z,13.60
2018-11-10T10:32:57.975Z,13.77
2018-11-10T10:35:29.177Z,14.53
2018-11-10T10:37:59.872Z,12.83
2018-11-10T10:40:29.757Z,13.97
2018-11-10T10:43:00.835Z,14.30
2018-11-10T10:45:30.331Z,14.23
2018-11-10T10:48:00.621Z,12.00
2018-11-10T10:50:30.574Z,13.80
2018-11-10T10:53:00.595Z,13.77
2018-11-10T10:55:32.342Z,13.37
2018-11-10T10:58:02.223Z,14.30
2018-11-10T11:00:36.443Z,14.80
2018-11-10T11:03:11.082Z,12.10
2018-11-10T11:05:42.920Z,12.23
2018-11-10T11:08:12.699Z,13.63
2018-11-10T11:10:42.351Z,12.77
2018-11-10T11:13:11.967Z,14.37
2018-11-10T11:15:42.299Z,14.13
2018-11-10T11:18:13.226Z,14.57
2018-11-10T11:20:43.992Z,13.97
2018-11-10T11:23:13.503Z,12.97
2018-11-10T11:25:44.251Z,13.87
2018-11-10T11:28:14.212Z,13.00
2018-11-10T11:30:43.787Z,12.00
2018-11-10T11:33:13.732Z,13.43
2018-11-10T11:35:43.444Z,12.57
2018-11-10T11:38:15.148Z,13.57
2018-11-10T11:40:45.055Z,13.47
2018-11-10T11:43:16.718Z,13.17
2018-11-10T11:45:46.416Z,13.60
2018-11-10T11:48:16.287Z,12.00
2018-11-10T11:50:47.356Z,13.20
2018-11-10T11:53:18.795Z,13.47
2018-11-10T11:55:50.295Z,15.83
2018-11-10T11:58:20.192Z,13.90
2018-11-10T12:00:49.925Z,14.40
2018-11-10T12:03:19.914Z,14.13
2018-11-10T12:05:49.781Z,15.43
2018-11-10T12:08:19.841Z,15.50
2018-11-10T12:10:50.930Z,13.53
2018-11-10T12:13:22.231Z,13.47
2018-11-10T12:15:52.656Z,13.30
2018-11-10T12:18:23.180Z,13.67
2018-11-10T12:20:54.168Z,12.53
2018-11-10T12:23:24.262Z,14.10
2018-11-10T12:25:54.399Z,13.67
2018-11-10T12:28:25.179Z,13.10
2018-11-10T12:30:55.340Z,14.03
2018-11-10T12:33:31.777Z,12.80
2018-11-10T12:36:02.974Z,13.60
2018-11-10T12:38:33.301Z,14.57
2018-11-10T12:41:03.783Z,13.53
2018-11-10T12:43:35.189Z,12.70
2018-11-10T12:46:05.058Z,14.83
2018-11-10T12:48:34.517Z,14.20
2018-11-10T12:51:04.481Z,12.50
2018-11-10T12:53:34.504Z,16.07
2018-11-10T12:56:05.466Z,14.33
2018-11-10T12:58:35.488Z,14.90
2018-11-10T13:01:05.229Z,21.90
2018-11-10T13:03:35.429Z,13.27
2018-11-10T13:06:06.116Z,13.60
2018-11-10T13:08:37.155Z,13.53
2018-11-10T13:11:07.491Z,15.23
2018-11-10T13:13:40.989Z,12.77
2018-11-10T13:16:11.622Z,12.17
2018-11-10T13:18:41.582Z,12.93
2018-11-10T13:21:13.008Z,11.70
2018-11-10T13:23:44.245Z,11.40
2018-11-10T13:26:15.463Z,13.80
2018-11-10T13:28:47.441Z,11.43
2018-11-10T13:31:17.720Z,12.77
2018-11-10T13:34:56.904Z,12.20
2018-11-10T13:37:28.030Z,11.67
2018-11-10T13:39:57.849Z,11.73
2018-11-10T13:42:28.175Z,13.43
2018-11-10T13:44:58.386Z,13.50
2018-11-10T13:47:28.762Z,10.30
2018-11-10T13:50:00.149Z,10.53
2018-11-10T13:52:30.390Z,12.27
2018-11-10T13:55:01.052Z,12.03
2018-11-10T13:57:31.531Z,14.97
2018-11-10T14:00:01.227Z,11.53
2018-11-10T14:02:32.515Z,12.80
2018-11-10T14:05:02.172Z,12.53
2018-11-10T14:07:31.848Z,12.73
2018-11-10T14:10:01.615Z,12.53
2018-11-10T14:12:32.254Z,12.17
2018-11-10T14:15:02.732Z,13.10
2018-11-10T14:17:32.596Z,13.57
2018-11-10T14:20:02.420Z,14.97
2018-11-10T14:22:32.786Z,15.87
2018-11-10T14:25:02.375Z,14.27
2018-11-10T14:27:32.042Z,15.67
2018-11-10T14:30:02.112Z,14.77
2018-11-10T14:32:32.178Z,13.47
2018-11-10T14:35:04.350Z,13.77
2018-11-10T14:37:37.287Z,14.10
2018-11-10T14:40:11.816Z,16.33
2018-11-10T14:42:43.653Z,18.93
2018-11-10T14:45:20.555Z,27.93
2018-11-10T14:47:51.677Z,28.83
2018-11-10T14:50:23.897Z,21.50
2018-11-10T14:52:55.099Z,21.30
2018-11-10T14:55:26.659Z,15.63
2018-11-10T14:57:58.611Z,22.10
2018-11-10T15:00:31.570Z,13.53
2018-11-10T15:03:02.699Z,14.43
2018-11-10T15:05:35.900Z,12.83
2018-11-10T15:08:07.595Z,16.73
2018-11-10T15:10:38.728Z,17.97
2018-11-10T15:13:12.139Z,32.93
2018-11-10T15:15:44.627Z,36.50
2018-11-10T15:18:19.043Z,37.07
2018-11-10T15:20:54.496Z,46.63
2018-11-10T15:23:26.812Z,30.40
2018-11-10T15:25:57.549Z,24.40
2018-11-10T15:28:32.297Z,21.23
2018-11-10T15:31:06.179Z,21.87
2018-11-10T15:33:41.011Z,21.63
2018-11-10T15:36:20.398Z,33.87
2018-11-10T15:38:53.750Z,21.43
2018-11-10T15:41:27.471Z,54.83
2018-11-10T15:44:03.590Z,107.87
2018-11-10T15:46:39.239Z,131.13
2018-11-10T15:49:18.159Z,128.53
2018-11-10T15:51:57.227Z,196.63
2018-11-10T15:54:30.690Z,210.70
2018-11-10T15:57:02.794Z,197.27
2018-11-10T15:59:33.890Z,162.30
2018-11-10T16:02:05.372Z,152.90
2018-11-10T16:04:39.613Z,121.10
2018-11-10T16:07:10.783Z,103.70
2018-11-10T16:09:45.813Z,90.17
2018-11-10T16:12:17.001Z,88.17
2018-11-10T16:14:48.843Z,73.17
2018-11-10T16:17:27.432Z,76.50
2018-11-10T16:20:03.420Z,71.07
2018-11-10T16:22:35.502Z,63.33
2018-11-10T16:25:10.387Z,58.80
2018-11-10T16:27:42.174Z,58.90
2018-11-10T16:32:54.364Z,45.83
2018-11-10T16:35:29.399Z,44.00
2018-11-10T16:38:05.057Z,44.00
2018-11-10T16:40:40.258Z,39.97
2018-11-10T16:43:16.650Z,39.03
2018-11-10T16:45:53.017Z,36.70
2018-11-10T16:48:29.638Z,40.23
2018-11-10T16:51:01.713Z,41.73
2018-11-10T16:53:33.280Z,31.37
2018-11-10T16:56:14.299Z,33.53
2018-11-10T16:58:50.706Z,30.37
2018-11-10T17:01:22.680Z,26.17
2018-11-10T17:03:58.290Z,24.63
2018-11-10T17:09:10.923Z,26.10
2018-11-10T17:11:44.833Z,25.93
2018-11-10T17:14:15.124Z,21.50
2018-11-10T17:16:46.949Z,21.87
2018-11-10T17:19:24.682Z,20.13
2018-11-10T17:21:58.555Z,22.07
2018-11-10T17:24:34.007Z,21.33
2018-11-10T17:27:06.997Z,24.87
2018-11-10T17:29:55.424Z,23.27
2018-11-10T17:32:31.285Z,23.67
2018-11-10T17:35:07.545Z,20.40
2018-11-10T17:37:38.319Z,21.47
2018-11-10T17:40:12.098Z,17.67
2018-11-10T17:42:48.308Z,18.47
2018-11-10T17:45:19.553Z,22.40
2018-11-10T17:47:50.977Z,17.87
2018-11-10T17:50:22.529Z,18.40
2018-11-10T17:53:00.297Z,19.63
2018-11-10T17:55:32.595Z,18.50
2018-11-10T17:58:05.386Z,19.37
2018-11-10T18:00:36.843Z,15.93
2018-11-10T18:03:09.232Z,20.00
2018-11-10T18:05:43.787Z,15.77
2018-11-10T18:08:18.018Z,18.47
2018-11-10T18:10:50.438Z,19.37
2018-11-10T18:13:24.097Z,19.40
2018-11-10T18:15:57.532Z,21.63
2018-11-10T18:18:29.520Z,16.27
2018-11-10T18:21:01.859Z,17.70
2018-11-10T18:23:34.781Z,17.03
2018-11-10T18:26:08.662Z,19.10
2018-11-10T18:28:41.554Z,23.20
2018-11-10T18:31:12.034Z,20.80
2018-11-10T18:33:50.639Z,22.73
2018-11-10T18:36:24.073Z,25.87
2018-11-10T18:38:58.657Z,22.57
2018-11-10T18:41:29.931Z,22.20
2018-11-10T18:44:05.153Z,20.63
2018-11-10T18:46:42.358Z,25.77
2018-11-10T18:49:18.660Z,24.40
2018-11-10T18:51:50.719Z,26.10
2018-11-10T18:54:27.157Z,24.87
2018-11-10T18:57:06.331Z,30.20
2018-11-10T18:59:36.891Z,28.67
2018-11-10T19:02:07.549Z,26.07
2018-11-10T19:04:40.575Z,26.20
2018-11-10T19:07:12.713Z,27.50
2018-11-10T19:09:44.910Z,23.50
2018-11-10T19:12:15.297Z,23.07
2018-11-10T19:14:48.312Z,21.27
2018-11-10T19:17:19.919Z,17.20
2018-11-10T19:19:50.912Z,19.00
2018-11-10T19:22:25.026Z,19.10
2018-11-10T19:25:05.385Z,15.23
2018-11-10T19:27:37.625Z,16.80
2018-11-10T19:30:14.514Z,15.73
2018-11-10T19:32:49.162Z,15.70
2018-11-10T19:35:28.083Z,15.63
2018-11-10T19:38:00.747Z,17.47
2018-11-10T19:40:34.249Z,15.77
2018-11-10T19:43:07.076Z,15.63
2018-11-10T19:45:39.426Z,14.90
2018-11-10T19:48:14.556Z,16.27
2018-11-10T19:50:44.616Z,15.30
2018-11-10T19:53:18.972Z,15.07
2018-11-10T19:55:51.205Z,17.33
2018-11-10T19:58:24.467Z,16.53
2018-11-10T20:00:56.548Z,16.97
2018-11-10T20:03:28.379Z,16.87
2018-11-10T20:06:02.649Z,16.97
2018-11-10T20:08:34.844Z,18.17
2018-11-10T20:11:06.604Z,19.23
2018-11-10T20:13:37.959Z,19.87
2018-11-10T20:16:08.839Z,21.13
2018-11-10T20:18:42.137Z,26.50
2018-11-10T20:21:16.974Z,26.03
2018-11-10T20:23:48.689Z,22.57
2018-11-10T20:26:21.694Z,23.03
2018-11-10T20:28:52.812Z,23.37
2018-11-10T20:31:25.061Z,24.07
2018-11-10T20:33:56.490Z,23.43
2018-11-10T20:36:26.735Z,24.13
2018-11-10T20:38:56.583Z,23.40
2018-11-10T20:41:29.151Z,23.23
2018-11-10T20:43:59.929Z,23.17
2018-11-10T20:46:34.374Z,23.03
2018-11-10T20:49:05.816Z,23.07
2018-11-10T20:51:36.265Z,22.47
2018-11-10T20:54:06.938Z,39.90
2018-11-10T20:56:39.155Z,26.20
2018-11-10T20:59:11.020Z,35.73
2018-11-10T21:01:42.252Z,41.93
2018-11-10T21:04:18.769Z,42.30
2018-11-10T21:06:50.477Z,47.73
2018-11-10T21:09:21.928Z,93.53
2018-11-10T21:11:51.532Z,49.00
2018-11-10T21:14:22.680Z,39.60
2018-11-10T21:16:54.555Z,29.93
2018-11-10T21:19:53.206Z,26.90
2018-11-10T21:22:23.221Z,23.73
2018-11-10T21:24:54.490Z,23.63
2018-11-10T21:27:28.409Z,26.57
2018-11-10T21:29:59.747Z,21.97
2018-11-10T21:32:35.542Z,25.13
2018-11-10T21:35:06.297Z,23.10
2018-11-10T21:37:39.870Z,22.10
2018-11-10T21:40:17.298Z,24.27
2018-11-10T21:42:48.049Z,21.43
2018-11-10T21:45:18.724Z,20.37
2018-11-10T21:47:48.642Z,20.40
2018-11-10T21:50:20.414Z,19.80
2018-11-10T21:52:52.366Z,20.50
2018-11-10T21:55:25.726Z,17.07
2018-11-10T21:57:56.242Z,16.33
2018-11-10T22:00:27.750Z,16.97
2018-11-10T22:03:00.657Z,17.30
2018-11-10T22:05:30.712Z,18.87
2018-11-10T22:08:00.936Z,18.60
2018-11-10T22:10:30.477Z,17.83
2018-11-10T22:13:00.064Z,18.10
2018-11-10T22:15:30.147Z,15.90
2018-11-10T22:18:00.165Z,17.30
2018-11-10T22:20:30.881Z,19.17
2018-11-10T22:23:00.714Z,19.07
2018-11-10T22:25:30.546Z,16.43
2018-11-10T22:28:02.637Z,15.07
2018-11-10T22:30:32.647Z,15.70
2018-11-10T22:33:02.336Z,14.93
2018-11-10T22:35:32.982Z,13.90
2018-11-10T22:38:02.557Z,15.67
2018-11-10T22:40:32.116Z,14.53
2018-11-10T22:43:03.218Z,16.17
2018-11-10T22:45:32.926Z,16.77
2018-11-10T22:48:02.798Z,15.27
2018-11-10T22:50:33.516Z,15.57
2018-11-10T22:53:03.361Z,15.37
2018-11-10T22:55:33.168Z,15.50
2018-11-10T22:58:03.064Z,14.63
2018-11-10T23:00:33.063Z,15.17
2018-11-10T23:03:02.915Z,16.13
2018-11-10T23:05:32.522Z,15.90
2018-11-10T23:08:02.667Z,15.47
2018-11-10T23:10:32.308Z,15.90
2018-11-10T23:13:02.135Z,14.90
2018-11-10T23:15:31.781Z,15.63
2018-11-10T23:18:01.989Z,14.93
2018-11-10T23:20:31.694Z,15.47
2018-11-10T23:23:03.679Z,16.20
2018-11-10T23:25:33.228Z,20.37
2018-11-10T23:28:03.084Z,19.60
2018-11-10T23:30:33.217Z,18.97
2018-11-10T23:33:03.198Z,18.37
2018-11-10T23:35:32.771Z,19.50
2018-11-10T23:38:02.675Z,17.90
2018-11-10T23:40:33.808Z,21.77
2018-11-10T23:43:04.018Z,22.97
2018-11-10T23:45:33.928Z,21.87
2018-11-10T23:48:03.617Z,20.17
2018-11-10T23:50:33.626Z,18.83
2018-11-10T23:53:03.542Z,17.97
2018-11-10T23:55:33.318Z,16.10
2018-11-10T23:58:03.188Z,16.60
